createdAt,value
2023-11-29T00:00:13.874Z,42.99
2023-11-29T00:02:43.003Z,43.06
2023-11-29T00:05:36.789Z,43.02
2023-11-29T00:08:07.975Z,42.78
2023-11-29T00:10:34.781Z,42.84
2023-11-29T00:13:01.532Z,42.80
2023-11-29T00:15:28.183Z,42.57
2023-11-29T00:17:55.261Z,42.65
2023-11-29T00:20:23.549Z,42.56
2023-11-29T00:22:50.432Z,42.26
2023-11-29T00:25:17.293Z,42.23
2023-11-29T00:27:44.536Z,42.26
2023-11-29T00:30:11.793Z,42.30
2023-11-29T00:32:38.632Z,41.85
2023-11-29T00:35:06.066Z,41.92
2023-11-29T00:37:32.917Z,41.77
2023-11-29T00:39:59.733Z,41.76
2023-11-29T00:42:26.478Z,41.47
2023-11-29T00:44:53.732Z,41.69
2023-11-29T00:47:20.927Z,41.50
2023-11-29T00:49:47.837Z,41.36
2023-11-29T00:52:14.652Z,41.45
2023-11-29T00:54:41.410Z,41.28
2023-11-29T00:57:08.139Z,41.26
2023-11-29T00:59:34.888Z,41.19
2023-11-29T01:02:01.802Z,41.01
2023-11-29T01:04:28.472Z,41.17
2023-11-29T01:06:55.202Z,41.04
2023-11-29T01:09:21.877Z,41.05
2023-11-29T01:11:49.848Z,41.11
2023-11-29T01:14:16.602Z,41.21
2023-11-29T01:16:43.329Z,41.06
2023-11-29T01:19:10.150Z,41.14
2023-11-29T01:21:39.510Z,41.06
2023-11-29T01:24:07.352Z,41.36
2023-11-29T01:26:35.240Z,41.13
2023-11-29T01:29:02.862Z,41.23
2023-11-29T01:31:29.636Z,41.41
2023-11-29T01:33:56.637Z,41.36
2023-11-29T01:36:24.009Z,41.24
2023-11-29T01:38:51.917Z,41.36
2023-11-29T01:41:18.710Z,41.61
2023-11-29T01:43:46.801Z,41.33
2023-11-29T01:46:14.521Z,41.39
2023-11-29T01:48:42.228Z,41.21
2023-11-29T01:51:09.542Z,41.20
2023-11-29T01:53:39.873Z,41.17
2023-11-29T01:56:08.256Z,41.02
2023-11-29T01:58:35.146Z,40.89
2023-11-29T02:01:02.484Z,40.92
2023-11-29T02:03:29.649Z,40.82
2023-11-29T02:05:56.706Z,40.78
2023-11-29T02:08:25.805Z,40.78
2023-11-29T02:10:52.676Z,40.96
2023-11-29T02:13:19.461Z,40.87
2023-11-29T02:15:46.500Z,40.67
2023-11-29T02:18:15.156Z,40.60
2023-11-29T02:20:43.369Z,40.79
2023-11-29T02:23:23.808Z,40.72
2023-11-29T02:25:51.991Z,40.67
2023-11-29T02:28:18.714Z,40.67
2023-11-29T02:30:45.534Z,40.75
2023-11-29T02:33:12.466Z,40.53
2023-11-29T02:35:39.303Z,40.63
2023-11-29T02:38:06.008Z,40.82
2023-11-29T02:40:34.425Z,40.67
2023-11-29T02:43:01.352Z,40.65
2023-11-29T02:45:28.085Z,40.79
2023-11-29T02:47:56.017Z,40.93
2023-11-29T02:50:22.824Z,40.77
2023-11-29T02:52:49.908Z,41.00
2023-11-29T02:55:16.869Z,40.61
2023-11-29T02:57:43.720Z,40.84
2023-11-29T03:00:11.146Z,40.76
2023-11-29T03:02:38.130Z,41.09
2023-11-29T03:05:05.817Z,40.96
2023-11-29T03:07:32.538Z,40.82
2023-11-29T03:10:00.725Z,41.07
2023-11-29T03:12:27.416Z,41.31
2023-11-29T03:14:54.240Z,41.18
2023-11-29T03:17:21.003Z,41.12
2023-11-29T03:19:47.789Z,41.10
2023-11-29T03:22:14.499Z,41.13
2023-11-29T03:25:00.051Z,41.17
2023-11-29T03:27:26.860Z,41.39
2023-11-29T03:29:53.631Z,41.24
2023-11-29T03:32:20.772Z,41.19
2023-11-29T03:34:47.745Z,41.22
2023-11-29T03:37:14.547Z,41.21
2023-11-29T03:39:41.220Z,41.29
2023-11-29T03:42:08.151Z,41.29
2023-11-29T03:44:36.082Z,41.11
2023-11-29T03:47:03.167Z,41.17
2023-11-29T03:49:29.880Z,41.20
2023-11-29T03:51:56.610Z,41.44
2023-11-29T03:54:23.286Z,41.26
2023-11-29T03:56:50.128Z,41.18
2023-11-29T03:59:16.934Z,41.14
2023-11-29T04:01:43.807Z,41.05
2023-11-29T04:04:10.631Z,40.81
2023-11-29T04:06:38.365Z,40.77
2023-11-29T04:09:05.422Z,40.98
2023-11-29T04:11:32.531Z,41.07
2023-11-29T04:13:59.318Z,41.30
2023-11-29T04:16:30.631Z,41.19
2023-11-29T04:18:57.846Z,41.13
2023-11-29T04:21:31.145Z,41.25
2023-11-29T04:23:59.314Z,41.41
2023-11-29T04:26:32.082Z,41.21
2023-11-29T04:29:05.409Z,41.12
2023-11-29T04:31:33.598Z,41.31
2023-11-29T04:34:07.307Z,41.25
2023-11-29T04:36:41.880Z,41.08
2023-11-29T04:39:11.203Z,41.10
2023-11-29T04:41:38.666Z,40.92
2023-11-29T04:44:05.980Z,41.17
2023-11-29T04:46:33.158Z,41.37
2023-11-29T04:49:00.002Z,41.10
2023-11-29T04:51:27.370Z,41.16
2023-11-29T04:53:54.370Z,41.02
2023-11-29T04:56:21.202Z,41.06
2023-11-29T04:58:48.080Z,41.08
2023-11-29T05:01:16.170Z,41.05
2023-11-29T05:03:42.997Z,41.15
2023-11-29T05:06:13.726Z,40.89
2023-11-29T05:08:40.592Z,41.08
2023-11-29T05:11:08.173Z,40.69
2023-11-29T05:13:35.741Z,40.61
2023-11-29T05:16:02.548Z,40.61
2023-11-29T05:18:30.056Z,40.55
2023-11-29T05:20:58.248Z,40.37
2023-11-29T05:23:28.018Z,40.38
2023-11-29T05:25:54.753Z,40.37
2023-11-29T05:28:26.792Z,40.31
2023-11-29T05:30:54.840Z,40.53
2023-11-29T05:33:23.506Z,40.45
2023-11-29T05:35:51.023Z,40.61
2023-11-29T05:38:18.542Z,40.61
2023-11-29T05:40:46.015Z,40.49
2023-11-29T05:43:12.760Z,40.50
2023-11-29T05:45:39.654Z,40.58
2023-11-29T05:48:06.700Z,40.47
2023-11-29T05:50:33.695Z,40.50
2023-11-29T05:53:00.900Z,40.58
2023-11-29T05:55:27.825Z,40.30
2023-11-29T05:57:54.503Z,40.40
2023-11-29T06:00:28.382Z,40.37
2023-11-29T06:03:00.898Z,40.18
2023-11-29T06:05:28.816Z,40.19
2023-11-29T06:07:55.621Z,39.97
2023-11-29T06:10:22.501Z,40.19
2023-11-29T06:12:49.400Z,40.11
2023-11-29T06:15:16.426Z,40.04
2023-11-29T06:17:43.866Z,40.17
2023-11-29T06:20:12.948Z,40.18
2023-11-29T06:22:40.170Z,40.14
2023-11-29T06:25:09.258Z,39.91
2023-11-29T06:27:39.683Z,39.91
2023-11-29T06:30:08.156Z,39.84
2023-11-29T06:32:37.497Z,39.70
2023-11-29T06:35:04.829Z,39.78
2023-11-29T06:37:31.554Z,39.74
2023-11-29T06:40:00.276Z,39.91
2023-11-29T06:42:27.058Z,39.95
2023-11-29T06:44:53.908Z,39.80
2023-11-29T06:47:20.870Z,39.86
2023-11-29T06:49:47.710Z,39.86
2023-11-29T06:52:14.496Z,39.83
2023-11-29T06:54:41.501Z,40.16
2023-11-29T06:57:08.325Z,39.94
2023-11-29T06:59:36.817Z,40.04
2023-11-29T07:02:07.082Z,40.08
2023-11-29T07:04:35.954Z,39.87
2023-11-29T07:07:04.017Z,39.71
2023-11-29T07:09:30.960Z,39.84
2023-11-29T07:11:57.854Z,39.76
2023-11-29T07:14:25.261Z,39.81
2023-11-29T07:16:52.361Z,39.98
2023-11-29T07:19:22.628Z,39.97
2023-11-29T07:21:49.470Z,40.21
2023-11-29T07:24:16.677Z,40.55
2023-11-29T07:26:43.548Z,40.80
2023-11-29T07:29:10.463Z,41.33
2023-11-29T07:31:37.325Z,41.76
2023-11-29T07:34:04.287Z,42.09
2023-11-29T07:36:32.616Z,42.24
2023-11-29T07:39:00.622Z,42.46
2023-11-29T07:41:28.311Z,42.71
2023-11-29T07:43:55.674Z,43.16
2023-11-29T07:46:22.694Z,43.18
2023-11-29T07:48:49.686Z,43.09
2023-11-29T07:51:16.680Z,43.55
2023-11-29T07:53:48.875Z,43.43
2023-11-29T07:56:18.611Z,43.38
2023-11-29T07:58:45.548Z,43.57
2023-11-29T08:01:12.717Z,43.37
2023-11-29T08:03:39.743Z,43.57
2023-11-29T08:06:08.135Z,43.45
2023-11-29T08:08:35.942Z,43.09
2023-11-29T08:11:02.858Z,43.25
2023-11-29T08:13:30.118Z,43.04
2023-11-29T08:15:59.926Z,43.08
2023-11-29T08:18:26.918Z,43.11
2023-11-29T08:20:53.822Z,42.88
2023-11-29T08:23:20.895Z,42.91
2023-11-29T08:25:47.872Z,42.89
2023-11-29T08:28:14.948Z,42.85
2023-11-29T08:30:41.912Z,42.69
2023-11-29T08:33:09.323Z,42.71
2023-11-29T08:35:37.455Z,42.64
2023-11-29T08:38:04.346Z,42.78
2023-11-29T08:40:31.102Z,42.69
2023-11-29T08:42:58.630Z,42.78
2023-11-29T08:45:25.411Z,42.92
2023-11-29T08:47:52.470Z,42.96
2023-11-29T08:50:20.107Z,43.00
2023-11-29T08:52:49.926Z,42.55
2023-11-29T08:55:18.739Z,43.10
2023-11-29T08:57:46.382Z,42.99
2023-11-29T09:00:13.936Z,42.99
2023-11-29T09:02:40.853Z,43.17
2023-11-29T09:05:09.411Z,43.24
2023-11-29T09:07:37.720Z,43.15
2023-11-29T09:10:06.819Z,43.20
2023-11-29T09:12:33.691Z,43.07
2023-11-29T09:15:00.607Z,43.18
2023-11-29T09:17:27.534Z,43.01
2023-11-29T09:19:57.275Z,42.83
2023-11-29T09:22:24.183Z,43.02
2023-11-29T09:24:54.284Z,42.80
2023-11-29T09:27:22.105Z,42.67
2023-11-29T09:29:50.433Z,42.93
2023-11-29T09:32:17.308Z,42.90
2023-11-29T09:34:44.021Z,42.56
2023-11-29T09:37:11.061Z,42.35
2023-11-29T09:39:37.860Z,42.21
2023-11-29T09:42:05.826Z,41.90
2023-11-29T09:44:33.677Z,42.02
2023-11-29T09:47:01.246Z,41.79
2023-11-29T09:49:29.531Z,42.13
2023-11-29T09:51:57.004Z,41.95
2023-11-29T09:54:23.827Z,41.97
2023-11-29T09:57:09.275Z,42.17
2023-11-29T09:59:36.265Z,42.13
2023-11-29T10:02:06.358Z,42.12
2023-11-29T10:04:37.982Z,41.78
2023-11-29T10:07:05.179Z,41.96
2023-11-29T10:09:37.500Z,41.90
2023-11-29T10:12:07.169Z,41.79
2023-11-29T10:14:34.157Z,41.93
2023-11-29T10:17:00.941Z,41.75
2023-11-29T10:19:27.968Z,41.67
2023-11-29T10:22:18.922Z,41.76
2023-11-29T10:24:46.465Z,41.72
2023-11-29T10:27:13.319Z,41.72
2023-11-29T10:29:40.630Z,41.69
2023-11-29T10:32:09.358Z,41.76
2023-11-29T10:34:36.444Z,42.02
2023-11-29T10:37:04.251Z,42.33
2023-11-29T10:39:34.061Z,42.48
2023-11-29T10:42:06.586Z,42.28
2023-11-29T10:44:39.867Z,42.03
2023-11-29T10:47:28.065Z,41.94
2023-11-29T10:50:15.923Z,42.18
2023-11-29T10:52:42.926Z,42.15
2023-11-29T10:55:10.484Z,41.96
2023-11-29T10:57:48.397Z,41.57
2023-11-29T11:00:17.135Z,41.50
2023-11-29T11:02:48.215Z,41.44
2023-11-29T11:05:23.134Z,41.44
2023-11-29T11:07:50.417Z,41.63
2023-11-29T11:10:25.272Z,41.78
2023-11-29T11:12:53.176Z,42.12
2023-11-29T11:15:25.703Z,42.25
2023-11-29T11:18:12.129Z,41.75
2023-11-29T11:20:44.009Z,41.70
2023-11-29T11:23:20.168Z,41.74
2023-11-29T11:25:47.955Z,42.21
2023-11-29T11:28:36.225Z,42.34
2023-11-29T11:31:08.483Z,42.36
2023-11-29T11:33:53.806Z,42.33
2023-11-29T11:36:23.737Z,42.22
2023-11-29T11:38:54.156Z,42.24
2023-11-29T11:41:20.986Z,42.24
2023-11-29T11:43:48.256Z,42.29
2023-11-29T11:46:17.066Z,42.42
2023-11-29T11:48:46.296Z,42.59
2023-11-29T11:51:13.146Z,42.31
2023-11-29T11:53:44.027Z,42.15
2023-11-29T11:56:20.312Z,42.06
2023-11-29T11:58:47.595Z,41.55
2023-11-29T12:01:15.480Z,41.66
2023-11-29T12:03:42.738Z,41.47
2023-11-29T12:06:10.493Z,41.49
2023-11-29T12:08:38.616Z,41.01
2023-11-29T12:11:08.510Z,41.04
2023-11-29T12:13:35.923Z,40.65
2023-11-29T12:16:13.721Z,40.39
2023-11-29T12:18:41.094Z,40.63
2023-11-29T12:21:08.758Z,40.83
2023-11-29T12:23:38.192Z,40.93
2023-11-29T12:26:05.318Z,41.09
2023-11-29T12:28:33.931Z,40.83
2023-11-29T12:31:01.115Z,40.77
2023-11-29T12:33:28.006Z,40.84
2023-11-29T12:35:54.964Z,40.68
2023-11-29T12:38:21.824Z,40.71
2023-11-29T12:40:49.490Z,40.66
2023-11-29T12:43:16.316Z,40.85
2023-11-29T12:45:43.087Z,40.76
2023-11-29T12:48:10.022Z,40.76
2023-11-29T12:50:37.079Z,41.06
2023-11-29T12:53:04.534Z,40.56
2023-11-29T12:55:31.321Z,40.97
2023-11-29T12:57:59.116Z,40.76
2023-11-29T13:00:25.921Z,41.04
2023-11-29T13:02:52.661Z,41.28
2023-11-29T13:05:19.418Z,41.57
2023-11-29T13:07:46.157Z,41.44
2023-11-29T13:10:13.625Z,41.60
2023-11-29T13:12:40.408Z,41.81
2023-11-29T13:15:07.767Z,42.01
2023-11-29T13:17:34.532Z,42.03
2023-11-29T13:20:02.982Z,42.11
2023-11-29T13:22:29.690Z,42.49
2023-11-29T13:24:56.588Z,42.46
2023-11-29T13:27:23.304Z,42.93
2023-11-29T13:29:50.316Z,43.05
2023-11-29T13:32:17.163Z,43.18
2023-11-29T13:34:43.901Z,43.45
2023-11-29T13:37:10.733Z,43.67
2023-11-29T13:39:37.465Z,43.80
2023-11-29T13:42:04.534Z,44.02
2023-11-29T13:44:31.359Z,44.08
2023-11-29T13:46:58.075Z,44.19
2023-11-29T13:49:25.008Z,44.43
2023-11-29T13:52:03.730Z,44.62
2023-11-29T13:54:36.582Z,44.60
2023-11-29T13:57:05.443Z,44.78
2023-11-29T13:59:32.541Z,45.11
2023-11-29T14:01:59.889Z,45.19
2023-11-29T14:04:28.173Z,45.23
2023-11-29T14:06:55.952Z,45.60
2023-11-29T14:09:22.751Z,45.48
2023-11-29T14:11:49.469Z,46.02
2023-11-29T14:14:20.126Z,45.78
2023-11-29T14:16:47.373Z,45.91
2023-11-29T14:19:14.970Z,45.81
2023-11-29T14:21:42.781Z,45.89
2023-11-29T14:24:09.596Z,46.08
2023-11-29T14:26:36.488Z,46.01
2023-11-29T14:29:06.090Z,46.12
2023-11-29T14:31:32.908Z,46.25
2023-11-29T14:33:59.676Z,46.46
2023-11-29T14:36:27.291Z,46.48
2023-11-29T14:38:54.081Z,46.18
2023-11-29T14:41:22.299Z,46.31
2023-11-29T14:43:50.811Z,46.36
2023-11-29T14:46:17.458Z,46.61
2023-11-29T14:48:44.535Z,46.83
2023-11-29T14:51:11.419Z,46.96
2023-11-29T14:53:38.262Z,46.75
2023-11-29T14:56:05.350Z,46.54
2023-11-29T14:58:32.230Z,46.95
2023-11-29T15:00:59.702Z,46.95
2023-11-29T15:03:28.348Z,47.05
2023-11-29T15:05:55.228Z,47.08
2023-11-29T15:08:22.213Z,47.24
2023-11-29T15:10:48.912Z,47.42
2023-11-29T15:13:15.644Z,47.37
2023-11-29T15:15:42.465Z,47.45
2023-11-29T15:18:09.378Z,47.70
2023-11-29T15:20:36.099Z,47.67
2023-11-29T15:23:03.905Z,47.78
2023-11-29T15:25:30.677Z,47.82
2023-11-29T15:27:57.456Z,48.01
2023-11-29T15:30:24.182Z,47.95
2023-11-29T15:32:53.312Z,48.19
2023-11-29T15:35:20.800Z,48.35
2023-11-29T15:37:48.232Z,48.49
2023-11-29T15:40:15.748Z,48.62
2023-11-29T15:42:42.550Z,48.69
2023-11-29T15:45:09.807Z,48.73
2023-11-29T15:47:36.646Z,48.69
2023-11-29T15:50:05.439Z,48.84
2023-11-29T15:52:32.294Z,48.65
2023-11-29T15:54:59.006Z,48.80
2023-11-29T15:57:27.305Z,48.99
2023-11-29T15:59:54.126Z,48.83
2023-11-29T16:02:21.276Z,49.09
2023-11-29T16:04:48.176Z,49.00
2023-11-29T16:07:14.861Z,48.66
2023-11-29T16:09:41.643Z,48.82
2023-11-29T16:12:08.500Z,48.75
2023-11-29T16:14:35.357Z,48.71
2023-11-29T16:17:02.186Z,48.75
2023-11-29T16:19:29.030Z,48.35
2023-11-29T16:21:56.144Z,48.69
2023-11-29T16:24:24.396Z,48.65
2023-11-29T16:26:52.738Z,48.74
2023-11-29T16:29:19.501Z,48.72
2023-11-29T16:31:46.499Z,48.71
2023-11-29T16:34:13.446Z,48.67
2023-11-29T16:36:40.322Z,48.55
2023-11-29T16:39:07.613Z,48.32
2023-11-29T16:41:34.507Z,48.84
2023-11-29T16:44:01.295Z,48.34
2023-11-29T16:46:31.008Z,48.32
2023-11-29T16:48:59.056Z,48.44
2023-11-29T16:51:25.984Z,48.41
2023-11-29T16:53:52.782Z,48.39
2023-11-29T16:56:19.502Z,48.62
2023-11-29T16:58:46.244Z,48.78
2023-11-29T17:01:21.813Z,48.85
2023-11-29T17:03:50.536Z,48.76
2023-11-29T17:06:19.050Z,49.00
2023-11-29T17:08:45.817Z,49.05
2023-11-29T17:11:12.716Z,49.25
2023-11-29T17:13:39.456Z,49.26
2023-11-29T17:16:06.513Z,49.18
2023-11-29T17:18:33.597Z,49.44
2023-11-29T17:21:00.410Z,49.64
2023-11-29T17:23:27.168Z,49.52
2023-11-29T17:25:58.405Z,49.39
2023-11-29T17:28:29.326Z,49.62
2023-11-29T17:30:56.494Z,49.57
2023-11-29T17:33:23.268Z,49.18
2023-11-29T17:35:50.146Z,49.20
2023-11-29T17:38:17.790Z,48.86
2023-11-29T17:40:45.408Z,48.62
2023-11-29T17:43:12.397Z,48.34
2023-11-29T17:45:39.290Z,48.14
2023-11-29T17:48:07.404Z,48.18
2023-11-29T17:50:34.245Z,47.94
2023-11-29T17:53:01.381Z,47.77
2023-11-29T17:55:28.181Z,47.56
2023-11-29T17:57:54.907Z,47.49
2023-11-29T18:00:23.101Z,47.67
2023-11-29T18:02:50.057Z,47.30
2023-11-29T18:05:17.129Z,47.29
2023-11-29T18:07:44.097Z,47.24
2023-11-29T18:10:11.191Z,47.37
2023-11-29T18:12:38.177Z,47.19
2023-11-29T18:15:05.465Z,46.98
2023-11-29T18:17:32.459Z,46.84
2023-11-29T18:20:00.714Z,47.03
2023-11-29T18:22:29.835Z,46.69
2023-11-29T18:24:56.774Z,47.12
2023-11-29T18:27:23.480Z,46.87
2023-11-29T18:29:50.201Z,46.73
2023-11-29T18:32:18.713Z,46.70
2023-11-29T18:34:46.442Z,46.97
2023-11-29T18:37:13.278Z,46.79
2023-11-29T18:39:40.018Z,46.98
2023-11-29T18:42:06.899Z,46.81
2023-11-29T18:44:34.786Z,46.70
2023-11-29T18:47:01.545Z,46.63
2023-11-29T18:49:28.207Z,46.53
2023-11-29T18:51:55.002Z,46.40
2023-11-29T18:54:21.782Z,46.49
2023-11-29T18:56:50.696Z,46.39
2023-11-29T18:59:18.367Z,46.40
2023-11-29T19:01:45.434Z,46.13
2023-11-29T19:04:12.426Z,46.08
2023-11-29T19:06:39.574Z,46.29
2023-11-29T19:09:06.381Z,46.21
2023-11-29T19:11:33.173Z,46.15
2023-11-29T19:13:59.850Z,46.36
2023-11-29T19:22:59.621Z,46.48
2023-11-29T19:25:26.447Z,46.00
2023-11-29T19:27:53.145Z,46.17
2023-11-29T19:30:20.226Z,46.29
2023-11-29T19:32:46.953Z,46.40
2023-11-29T19:35:22.451Z,46.10
2023-11-29T19:37:59.721Z,45.95
2023-11-29T19:40:26.679Z,46.33
2023-11-29T19:42:53.432Z,46.21
2023-11-29T19:45:20.206Z,46.02
2023-11-29T19:47:47.083Z,46.02
2023-11-29T19:50:13.920Z,46.25
2023-11-29T19:52:48.115Z,46.11
2023-11-29T19:55:22.454Z,46.05
2023-11-29T19:57:49.298Z,45.94
2023-11-29T20:00:16.563Z,46.02
2023-11-29T20:02:43.277Z,45.94
2023-11-29T20:05:10.134Z,45.83
2023-11-29T20:07:36.790Z,45.97
2023-11-29T20:10:05.282Z,46.11
2023-11-29T20:12:32.022Z,45.89
2023-11-29T20:15:17.743Z,45.78
2023-11-29T20:17:44.676Z,46.19
2023-11-29T20:20:16.606Z,45.79
2023-11-29T20:22:48.138Z,45.98
2023-11-29T20:25:15.039Z,45.92
2023-11-29T20:27:42.963Z,46.45
2023-11-29T20:30:10.501Z,45.96
2023-11-29T20:32:37.227Z,46.17
2023-11-29T20:35:24.612Z,46.17
2023-11-29T20:37:52.473Z,45.77
2023-11-29T20:40:20.214Z,46.18
2023-11-29T20:42:46.918Z,46.22
2023-11-29T20:45:13.759Z,46.03
2023-11-29T20:47:40.759Z,46.08
2023-11-29T20:50:07.819Z,46.03
2023-11-29T20:52:34.577Z,46.02
2023-11-29T20:55:01.299Z,46.18
2023-11-29T20:57:28.086Z,46.12
2023-11-29T20:59:54.881Z,46.13
2023-11-29T21:02:21.755Z,46.15
2023-11-29T21:04:48.591Z,45.98
2023-11-29T21:07:15.766Z,45.95
2023-11-29T21:09:42.602Z,46.16
2023-11-29T21:12:09.621Z,45.79
2023-11-29T21:14:36.839Z,45.97
2023-11-29T21:17:21.947Z,45.91
2023-11-29T21:19:49.257Z,45.76
2023-11-29T21:22:16.035Z,45.90
2023-11-29T21:25:01.676Z,45.50
2023-11-29T21:27:28.467Z,45.67
2023-11-29T21:29:55.202Z,45.71
2023-11-29T21:32:22.129Z,45.38
2023-11-29T21:34:49.220Z,45.51
2023-11-29T21:37:16.033Z,45.34
2023-11-29T21:39:42.888Z,45.27
2023-11-29T21:42:10.541Z,45.36
2023-11-29T21:44:37.325Z,45.26
2023-11-29T21:47:04.794Z,45.32
2023-11-29T21:49:31.579Z,45.23
2023-11-29T21:51:58.396Z,44.97
2023-11-29T21:54:25.254Z,44.88
2023-11-29T21:56:52.139Z,44.79
2023-11-29T21:59:18.937Z,44.90
2023-11-29T22:01:53.194Z,44.75
2023-11-29T22:04:20.541Z,44.88
2023-11-29T22:06:51.192Z,44.84
2023-11-29T22:09:18.106Z,44.78
2023-11-29T22:11:45.093Z,44.77
2023-11-29T22:14:14.735Z,44.96
2023-11-29T22:16:41.509Z,45.00
2023-11-29T22:19:09.740Z,44.86
2023-11-29T22:21:36.883Z,44.53
2023-11-29T22:24:03.860Z,44.56
2023-11-29T22:26:43.893Z,44.84
2023-11-29T22:29:22.361Z,44.48
2023-11-29T22:31:50.750Z,44.46
2023-11-29T22:34:17.495Z,44.32
2023-11-29T22:36:44.309Z,44.29
2023-11-29T22:39:12.836Z,43.99
2023-11-29T22:41:39.796Z,44.05
2023-11-29T22:44:09.236Z,44.11
2023-11-29T22:46:36.434Z,43.75
2023-11-29T22:49:03.396Z,44.02
2023-11-29T22:51:31.241Z,43.75
2023-11-29T22:54:03.790Z,43.81
2023-11-29T22:56:34.448Z,43.74
2023-11-29T22:59:01.347Z,43.52
2023-11-29T23:01:28.935Z,43.52
2023-11-29T23:03:59.838Z,43.67
2023-11-29T23:06:27.455Z,43.55
2023-11-29T23:08:55.341Z,43.65
2023-11-29T23:11:22.768Z,43.54
2023-11-29T23:13:49.836Z,43.50
2023-11-29T23:16:16.697Z,43.52
2023-11-29T23:18:43.501Z,43.42
2023-11-29T23:21:11.247Z,43.52
2023-11-29T23:23:40.081Z,43.56
2023-11-29T23:26:07.438Z,43.55
2023-11-29T23:28:34.224Z,43.37
2023-11-29T23:31:01.610Z,43.45
2023-11-29T23:33:29.206Z,43.32
2023-11-29T23:35:57.249Z,43.24
2023-11-29T23:38:24.542Z,43.31
2023-11-29T23:40:51.394Z,43.21
2023-11-29T23:43:18.087Z,43.28
2023-11-29T23:45:44.867Z,43.06
2023-11-29T23:48:11.684Z,43.01
2023-11-29T23:50:56.720Z,43.17
2023-11-29T23:53:23.607Z,42.71
2023-11-29T23:55:50.375Z,42.96
2023-11-29T23:58:17.197Z,43.10
